Airfield :
LOGIN :

Register | Disclaimer

   EN    FR    IT 

 










Legend :    VFR   Marginal VFR   IFR   Intensive IFR   Very Intensive IFR
Visi :
Ceiling :
>= 8 km
>= 3000ft
5 to 8 km
1000 to 3000 ft
1500m to 5 km
500 to 1000 ft
800 to 1500m
200 to 500 ft
< 800m
< 200 ft
Symbols :   Thunderstorms  Fog  Heavy snow  Heavy precipitations  Wind > 20 kt
SIGMETs :     Misc.  Thunderstorms  Icing  Turbulence  Mountain Waves  Volcanic Ashes







- Airport Elevation : 235 ft
- IATA code : BZG


EPBY - Bydgoszcz

CURRENT METAR :
  • 281630Z VRB02KT 9999 FEW033CB 16/13 Q1009

EXPIRED METARs :
  • 281600Z 25009G20KT 200V290 8000 -SHRA FEW012 SCT032CB BKN039 15/14 Q1009 RETSRA
  • 281530Z 27007KT 230V300 9999 -TSRA FEW001 BKN038CB BKN044 16/14 Q1009 RETSRA
  • 281500Z 25005KT 190V290 7000 -TSRA FEW009 SCT025CB BKN039 16/15 Q1009
  • 281430Z 35009KT 300V010 9999 TS FEW006 SCT024CB 19/15 Q1008
  • 281400Z 25009KT 220V280 9999 -TSRA FEW008 SCT030CB BKN043 20/16 Q1008

TAF TAF EPBY
Valid from the 28 at 06:00 until the 29 at 06:00 UTC


280530Z 2806/2906 26010KT 9999 BKN005
PROB40 2806/2808 BKN002
BECMG 2808/2810 BKN035
TEMPO 2808/2819 4000 TSRA BKN020CB
PROB40
TEMPO 2812/2818 VRB15G30KT 1500 +TSRA BKN003 BKN015CB
No reported NOTAMs for that airfield.
1 SIGMET reported for the Warszawa FIR (EPWW) :
 
Frequent thunderstorms
EPWW SIGMET 3 VALID 281400/281800 EPWA
EPWW WARSAW FIR FRQ TS OBS E OF LINE N4930 E01920 - N5310 E01630 - N5420 E01410 TOP FL400 MOV E INTSF=



MET'MAP, your aeronautical weather chart ! - Copyright ORBIFLY December 2007 - Disclaimer

ORBIFLY MET'MAP TEAM :

Programming & Development : Alexandra Zaïnal
Concept & Development : Baudouin d'Aumeries
Co-Development & Prog : Marc-Olivier Méhu
Technical & hardware support : Manuel Goepfert

Contact : metmap@orbifly.com




SOURCES & CREDITS :

   NOAA